createdAt,value
2023-05-04T00:09:46.859Z,9.19
2023-05-04T00:21:47.290Z,8.82
2023-05-04T00:33:47.729Z,8.33
2023-05-04T00:45:48.192Z,8.19
2023-05-04T00:57:48.645Z,7.55
2023-05-04T01:09:49.113Z,7.55
2023-05-04T01:21:49.563Z,7.23
2023-05-04T01:33:49.985Z,7.31
2023-05-04T01:45:50.490Z,7.13
2023-05-04T01:57:50.924Z,6.82
2023-05-04T02:09:51.329Z,6.29
2023-05-04T02:21:51.812Z,6.46
2023-05-04T02:33:52.316Z,6.58
2023-05-04T02:45:52.885Z,6.18
2023-05-04T02:57:53.176Z,5.68
2023-05-04T03:09:53.632Z,5.38
2023-05-04T03:21:54.100Z,5.66
2023-05-04T03:33:54.531Z,5.44
2023-05-04T03:45:55.016Z,5.36
2023-05-04T03:57:55.431Z,5.47
2023-05-04T04:09:55.926Z,5.67
2023-05-04T04:21:56.334Z,5.71
2023-05-04T04:33:56.799Z,5.60
2023-05-04T04:45:57.250Z,5.84
2023-05-04T04:57:57.712Z,5.97
2023-05-04T05:09:58.131Z,6.13
2023-05-04T05:21:58.606Z,7.30
2023-05-04T05:33:59.034Z,8.48
2023-05-04T05:45:59.622Z,9.67
2023-05-04T05:57:59.932Z,10.62
2023-05-04T06:10:00.400Z,11.70
2023-05-04T06:22:00.871Z,12.16
2023-05-04T06:34:01.347Z,12.57
2023-05-04T06:46:01.840Z,13.22
2023-05-04T06:58:02.230Z,13.67
2023-05-04T07:10:02.884Z,14.29
2023-05-04T07:22:03.170Z,13.84
2023-05-04T07:34:03.606Z,14.32
2023-05-04T07:46:04.080Z,14.29
2023-05-04T07:58:04.482Z,14.49
2023-05-04T08:10:05.227Z,15.37
2023-05-04T08:22:05.386Z,15.97
2023-05-04T08:34:05.852Z,16.59
2023-05-04T08:46:06.375Z,16.92
2023-05-04T08:58:06.778Z,16.90
2023-05-04T09:10:07.217Z,17.38
2023-05-04T09:22:07.686Z,18.93
2023-05-04T09:34:08.116Z,17.23
2023-05-04T09:46:08.639Z,16.99
2023-05-04T09:58:09.033Z,21.36
2023-05-04T10:10:09.525Z,19.28
2023-05-04T10:22:09.944Z,18.62
2023-05-04T10:34:10.425Z,20.99
2023-05-04T10:46:10.923Z,20.05
2023-05-04T10:58:11.385Z,20.33
2023-05-04T11:10:11.751Z,18.93
2023-05-04T11:22:12.237Z,20.73
2023-05-04T11:34:12.661Z,19.89
2023-05-04T11:46:13.300Z,18.63
2023-05-04T11:58:13.595Z,19.48
2023-05-04T12:10:14.036Z,19.87
2023-05-04T12:22:14.484Z,19.87
2023-05-04T12:34:14.931Z,21.12
2023-05-04T12:46:15.485Z,23.67
2023-05-04T12:58:15.876Z,22.42
2023-05-04T13:10:16.328Z,21.75
2023-05-04T13:22:16.817Z,21.70
2023-05-04T13:34:17.239Z,22.74
2023-05-04T13:46:17.716Z,21.48
2023-05-04T13:58:18.141Z,21.90
2023-05-04T14:10:18.591Z,21.05
2023-05-04T14:22:19.065Z,23.23
2023-05-04T14:34:19.518Z,23.66
2023-05-04T14:46:19.982Z,25.27
2023-05-04T14:58:20.440Z,24.08
2023-05-04T15:10:20.878Z,21.24
2023-05-04T15:22:21.384Z,23.66
2023-05-04T15:34:21.799Z,20.84
2023-05-04T15:46:22.279Z,21.09
2023-05-04T15:58:22.719Z,21.81
2023-05-04T16:10:23.182Z,21.62
2023-05-04T16:22:23.639Z,19.73
2023-05-04T16:34:24.076Z,20.26
2023-05-04T16:46:24.547Z,21.65
2023-05-04T16:58:25.045Z,18.92
2023-05-04T17:10:25.462Z,19.49
2023-05-04T17:22:25.954Z,21.37
2023-05-04T17:34:26.371Z,17.96
2023-05-04T17:46:26.864Z,17.27
2023-05-04T17:58:27.277Z,16.65
2023-05-04T18:10:27.740Z,16.03
2023-05-04T18:22:28.186Z,15.40
2023-05-04T18:34:28.691Z,14.77
2023-05-04T18:46:29.088Z,14.30
2023-05-04T18:58:29.521Z,13.56
2023-05-04T19:10:30.047Z,13.24
2023-05-04T19:22:30.470Z,12.93
2023-05-04T19:34:30.900Z,12.40
2023-05-04T19:46:31.409Z,12.12
2023-05-04T19:58:31.839Z,11.86
2023-05-04T20:10:32.346Z,11.34
2023-05-04T20:22:32.739Z,11.05
2023-05-04T20:34:33.212Z,10.77
2023-05-04T20:46:33.708Z,10.34
2023-05-04T20:58:34.093Z,10.40
2023-05-04T21:10:34.528Z,8.57
2023-05-04T21:22:35.017Z,9.82
2023-05-04T21:34:35.459Z,9.66
2023-05-04T21:46:35.982Z,9.56
2023-05-04T21:58:36.353Z,9.48
2023-05-04T22:10:36.797Z,9.15
2023-05-04T22:22:37.260Z,8.93
2023-05-04T22:34:37.756Z,8.12
2023-05-04T22:46:38.256Z,8.48
2023-05-04T22:58:38.628Z,8.22
2023-05-04T23:10:39.060Z,7.89
2023-05-04T23:22:39.564Z,7.82
2023-05-04T23:34:39.982Z,7.18
2023-05-04T23:46:40.438Z,6.03
2023-05-04T23:58:40.911Z,7.50
